createdAt,value
2017-09-07T00:02:06.226Z,46.00
2017-09-07T00:04:32.391Z,45.90
2017-09-07T00:06:58.524Z,46.20
2017-09-07T00:09:24.648Z,46.10
2017-09-07T00:11:52.360Z,46.10
2017-09-07T00:14:18.624Z,46.10
2017-09-07T00:16:44.798Z,46.20
2017-09-07T00:19:10.923Z,46.50
2017-09-07T00:21:37.062Z,46.70
2017-09-07T00:24:03.178Z,46.70
2017-09-07T00:26:29.326Z,47.20
2017-09-07T00:28:55.458Z,46.80
2017-09-07T00:31:21.614Z,47.10
2017-09-07T00:33:47.761Z,47.20
2017-09-07T00:36:13.905Z,47.50
2017-09-07T00:38:40.066Z,47.50
2017-09-07T00:41:06.226Z,47.50
2017-09-07T00:43:32.391Z,47.40
2017-09-07T00:45:58.556Z,48.00
2017-09-07T00:48:24.719Z,47.50
2017-09-07T00:50:52.756Z,47.40
2017-09-07T00:53:18.933Z,47.40
2017-09-07T00:55:45.066Z,47.40
2017-09-07T00:58:11.230Z,47.50
2017-09-07T01:00:37.352Z,47.40
2017-09-07T01:03:03.554Z,47.70
2017-09-07T01:05:29.744Z,48.20
2017-09-07T01:07:55.953Z,48.10
2017-09-07T01:10:22.120Z,48.60
2017-09-07T01:12:48.291Z,48.70
2017-09-07T01:15:14.468Z,48.80
2017-09-07T01:17:40.677Z,48.90
2017-09-07T01:20:06.842Z,49.10
2017-09-07T01:22:33.048Z,49.20
2017-09-07T01:24:59.202Z,49.20
2017-09-07T01:27:25.373Z,49.30
2017-09-07T01:29:51.546Z,49.50
2017-09-07T01:32:17.736Z,49.50
2017-09-07T01:34:43.903Z,49.80
2017-09-07T01:37:10.031Z,50.10
2017-09-07T01:39:36.187Z,50.30
2017-09-07T01:42:02.360Z,50.30
2017-09-07T01:44:28.510Z,50.40
2017-09-07T01:46:54.648Z,50.40
2017-09-07T01:49:20.790Z,50.20
2017-09-07T01:51:46.921Z,50.30
2017-09-07T01:54:13.061Z,50.40
2017-09-07T01:56:39.202Z,50.50
2017-09-07T01:59:05.346Z,50.70
2017-09-07T02:01:31.500Z,50.50
2017-09-07T02:03:57.731Z,50.70
2017-09-07T02:06:23.914Z,50.90
2017-09-07T02:08:50.081Z,51.00
2017-09-07T02:11:16.206Z,50.90
2017-09-07T02:13:42.334Z,51.00
2017-09-07T02:16:08.463Z,51.20
2017-09-07T02:18:34.586Z,51.20
2017-09-07T02:21:01.679Z,51.60
2017-09-07T02:23:27.835Z,51.50
2017-09-07T02:25:54.002Z,51.60
2017-09-07T02:28:20.320Z,51.80
2017-09-07T02:30:46.474Z,51.90
2017-09-07T02:33:12.679Z,52.10
2017-09-07T02:35:38.833Z,52.30
2017-09-07T02:38:04.959Z,52.40
2017-09-07T02:40:31.326Z,52.50
2017-09-07T02:42:58.139Z,52.80
2017-09-07T02:45:24.563Z,52.90
2017-09-07T02:47:50.712Z,52.90
2017-09-07T02:50:16.879Z,53.10
2017-09-07T02:52:43.010Z,53.10
2017-09-07T02:55:09.198Z,53.30
2017-09-07T02:57:35.327Z,53.60
2017-09-07T03:00:01.470Z,53.90
2017-09-07T03:02:27.594Z,53.90
2017-09-07T03:04:53.737Z,54.00
2017-09-07T03:07:19.934Z,54.10
2017-09-07T03:09:46.162Z,54.20
2017-09-07T03:12:12.328Z,54.20
2017-09-07T03:14:38.466Z,54.30
2017-09-07T03:17:04.635Z,54.10
2017-09-07T03:19:30.781Z,54.20
2017-09-07T03:21:56.943Z,54.10
2017-09-07T03:24:23.118Z,54.10
2017-09-07T03:26:49.270Z,54.10
2017-09-07T03:29:15.405Z,54.20
2017-09-07T03:31:41.596Z,54.90
2017-09-07T03:34:07.734Z,54.10
2017-09-07T03:36:33.922Z,54.10
2017-09-07T03:39:00.088Z,54.10
2017-09-07T03:41:26.246Z,54.10
2017-09-07T03:43:52.494Z,54.20
2017-09-07T03:46:18.655Z,54.00
2017-09-07T03:48:44.800Z,54.20
2017-09-07T03:51:10.954Z,54.20
2017-09-07T03:53:37.103Z,54.00
2017-09-07T03:56:03.258Z,54.10
2017-09-07T03:58:29.399Z,53.90
2017-09-07T04:00:55.570Z,53.80
2017-09-07T04:03:21.724Z,54.00
2017-09-07T04:05:47.869Z,53.70
2017-09-07T04:08:14.030Z,54.00
2017-09-07T04:10:40.183Z,53.90
2017-09-07T04:13:07.780Z,54.00
2017-09-07T04:15:33.973Z,54.20
2017-09-07T04:18:00.142Z,54.20
2017-09-07T04:20:26.271Z,54.20
2017-09-07T04:22:52.418Z,54.20
2017-09-07T04:25:18.557Z,54.20
2017-09-07T04:27:44.735Z,54.30
2017-09-07T04:30:10.862Z,54.30
2017-09-07T04:32:36.994Z,54.20
2017-09-07T04:35:03.120Z,54.30
2017-09-07T04:37:29.288Z,54.40
2017-09-07T04:39:55.435Z,54.40
2017-09-07T04:42:21.580Z,54.50
2017-09-07T04:44:47.719Z,54.80
2017-09-07T04:47:13.868Z,54.60
2017-09-07T04:49:41.034Z,54.80
2017-09-07T04:52:07.167Z,54.70
2017-09-07T04:54:33.318Z,54.90
2017-09-07T04:56:59.456Z,54.90
2017-09-07T04:59:25.597Z,55.00
2017-09-07T05:01:51.713Z,55.00
2017-09-07T05:04:17.884Z,55.00
2017-09-07T05:06:44.020Z,55.10
2017-09-07T05:09:10.175Z,55.00
2017-09-07T05:11:37.196Z,55.10
2017-09-07T05:14:03.459Z,55.30
2017-09-07T05:16:29.586Z,55.40
2017-09-07T05:18:55.739Z,56.10
2017-09-07T05:21:21.885Z,55.50
2017-09-07T05:23:48.047Z,55.40
2017-09-07T05:26:14.222Z,55.50
2017-09-07T05:28:40.379Z,55.20
2017-09-07T05:31:06.511Z,55.40
2017-09-07T05:33:32.642Z,55.40
2017-09-07T05:35:58.879Z,55.30
2017-09-07T05:38:25.023Z,55.30
2017-09-07T05:40:51.182Z,55.30
2017-09-07T05:43:17.965Z,55.40
2017-09-07T05:45:44.155Z,55.10
2017-09-07T05:48:30.570Z,55.30
2017-09-07T05:50:56.723Z,55.40
2017-09-07T05:53:22.859Z,55.40
2017-09-07T05:55:49.072Z,55.50
2017-09-07T05:58:15.226Z,55.60
2017-09-07T06:00:41.382Z,55.50
2017-09-07T06:03:07.529Z,55.40
2017-09-07T06:05:33.729Z,55.20
2017-09-07T06:07:59.858Z,55.10
2017-09-07T06:10:26.027Z,55.00
2017-09-07T06:12:52.163Z,55.00
2017-09-07T06:15:18.352Z,55.10
2017-09-07T06:17:44.510Z,55.10
2017-09-07T06:20:10.692Z,55.20
2017-09-07T06:22:36.835Z,55.20
2017-09-07T06:25:03.045Z,55.10
2017-09-07T06:27:29.182Z,55.00
2017-09-07T06:29:55.371Z,54.90
2017-09-07T06:32:21.618Z,55.00
2017-09-07T06:34:47.751Z,54.90
2017-09-07T06:37:13.964Z,55.00
2017-09-07T06:39:40.109Z,55.00
2017-09-07T06:42:06.272Z,55.10
2017-09-07T06:44:32.390Z,55.70
2017-09-07T06:46:58.558Z,54.90
2017-09-07T06:49:24.683Z,54.80
2017-09-07T06:51:50.811Z,54.90
2017-09-07T06:54:16.973Z,55.10
2017-09-07T06:56:43.122Z,54.80
2017-09-07T06:59:09.262Z,54.90
2017-09-07T07:01:35.406Z,54.90
2017-09-07T07:04:01.526Z,54.90
2017-09-07T07:06:27.691Z,54.80
2017-09-07T07:08:53.834Z,55.00
2017-09-07T07:11:20.011Z,54.80
2017-09-07T07:13:46.179Z,54.90
2017-09-07T07:16:12.298Z,54.70
2017-09-07T07:18:38.436Z,54.20
2017-09-07T07:21:04.575Z,53.70
2017-09-07T07:23:30.712Z,53.70
2017-09-07T07:25:56.826Z,53.80
2017-09-07T07:28:22.998Z,53.90
2017-09-07T07:30:49.185Z,53.70
2017-09-07T07:33:15.322Z,53.50
2017-09-07T07:35:41.451Z,53.30
2017-09-07T07:38:07.599Z,52.80
2017-09-07T07:40:33.730Z,52.60
2017-09-07T07:42:59.911Z,52.60
2017-09-07T07:45:26.046Z,52.20
2017-09-07T07:47:52.223Z,52.10
2017-09-07T07:50:18.363Z,52.10
2017-09-07T07:52:44.554Z,51.90
2017-09-07T07:55:10.728Z,51.70
2017-09-07T07:57:36.887Z,51.20
2017-09-07T08:00:03.063Z,50.90
2017-09-07T08:02:32.359Z,50.80
2017-09-07T08:04:59.667Z,50.50
2017-09-07T08:07:25.816Z,50.50
2017-09-07T08:09:51.972Z,49.80
2017-09-07T08:12:18.130Z,50.00
2017-09-07T08:14:44.323Z,49.90
2017-09-07T08:17:10.506Z,49.70
2017-09-07T08:19:36.699Z,49.50
2017-09-07T08:22:02.871Z,49.30
2017-09-07T08:24:29.032Z,49.50
2017-09-07T08:26:55.187Z,48.70
2017-09-07T08:29:21.335Z,48.50
2017-09-07T08:31:47.462Z,48.60
2017-09-07T08:34:13.642Z,48.40
2017-09-07T08:36:39.823Z,48.70
2017-09-07T08:39:05.980Z,47.60
2017-09-07T08:41:32.127Z,48.00
2017-09-07T08:43:58.310Z,48.20
2017-09-07T08:46:24.458Z,46.60
2017-09-07T08:48:50.708Z,47.30
2017-09-07T08:51:17.002Z,46.90
2017-09-07T08:53:43.888Z,46.50
2017-09-07T08:56:10.080Z,46.40
2017-09-07T08:58:36.236Z,46.30
2017-09-07T09:01:02.429Z,45.90
2017-09-07T09:03:28.570Z,45.90
2017-09-07T09:05:54.771Z,45.20
2017-09-07T09:08:23.315Z,45.20
2017-09-07T09:10:49.549Z,45.00
2017-09-07T09:13:15.687Z,44.80
2017-09-07T09:15:42.221Z,44.70
2017-09-07T09:18:08.425Z,44.60
2017-09-07T09:20:34.607Z,43.30
2017-09-07T09:23:00.802Z,43.50
2017-09-07T09:25:26.975Z,43.00
2017-09-07T09:27:53.204Z,43.50
2017-09-07T09:30:19.511Z,42.70
2017-09-07T09:32:47.179Z,42.00
2017-09-07T09:35:13.404Z,41.60
2017-09-07T09:37:39.555Z,42.10
2017-09-07T09:40:05.896Z,40.90
2017-09-07T09:42:32.059Z,40.00
2017-09-07T09:44:58.577Z,40.00
2017-09-07T09:47:24.749Z,40.20
2017-09-07T09:49:50.939Z,40.20
2017-09-07T09:52:18.293Z,39.40
2017-09-07T09:54:44.736Z,40.20
2017-09-07T09:57:10.940Z,40.10
2017-09-07T09:59:37.095Z,39.10
2017-09-07T10:02:10.030Z,38.50
2017-09-07T10:04:36.175Z,38.50
2017-09-07T10:07:02.330Z,38.20
2017-09-07T10:09:28.467Z,37.20
2017-09-07T10:11:54.668Z,37.60
2017-09-07T10:14:20.803Z,37.80
2017-09-07T10:16:46.967Z,36.70
2017-09-07T10:19:13.103Z,36.50
2017-09-07T10:21:39.291Z,36.50
2017-09-07T10:24:05.439Z,36.20
2017-09-07T10:26:31.598Z,36.50
2017-09-07T10:28:57.807Z,35.80
2017-09-07T10:31:23.975Z,34.50
2017-09-07T10:33:50.138Z,34.70
2017-09-07T10:36:16.605Z,34.40
2017-09-07T10:38:42.819Z,35.00
2017-09-07T10:41:08.968Z,33.00
2017-09-07T10:43:35.476Z,33.20
2017-09-07T10:46:01.629Z,33.00
2017-09-07T10:48:27.805Z,32.10
2017-09-07T10:50:53.949Z,33.20
2017-09-07T10:53:20.156Z,34.00
2017-09-07T10:55:46.326Z,34.20
2017-09-07T10:58:12.567Z,34.30
2017-09-07T11:00:38.755Z,33.90
2017-09-07T11:03:04.949Z,33.10
2017-09-07T11:05:31.211Z,33.30
2017-09-07T11:07:57.401Z,34.00
2017-09-07T11:10:23.688Z,34.50
2017-09-07T11:12:49.885Z,34.40
2017-09-07T11:15:16.043Z,34.30
2017-09-07T11:17:45.696Z,34.40
2017-09-07T11:20:11.835Z,34.00
2017-09-07T11:22:38.039Z,35.00
2017-09-07T11:25:12.326Z,35.30
2017-09-07T11:27:38.560Z,33.50
2017-09-07T11:30:04.763Z,32.90
2017-09-07T11:32:31.054Z,32.20
2017-09-07T11:34:57.235Z,30.90
2017-09-07T11:37:23.391Z,30.80
2017-09-07T11:39:49.777Z,31.40
2017-09-07T11:42:18.080Z,31.60
2017-09-07T11:44:44.291Z,31.00
2017-09-07T11:47:10.516Z,32.00
2017-09-07T11:49:36.696Z,31.10
2017-09-07T11:52:02.857Z,31.10
2017-09-07T11:54:29.184Z,30.10
2017-09-07T11:56:55.367Z,31.10
2017-09-07T12:01:59.077Z,29.80
2017-09-07T12:04:25.346Z,29.50
2017-09-07T12:06:51.534Z,30.00
2017-09-07T12:09:19.839Z,30.10
2017-09-07T12:11:46.039Z,30.10
2017-09-07T12:14:12.254Z,29.80
2017-09-07T12:16:38.464Z,30.80
2017-09-07T12:19:04.716Z,29.80
2017-09-07T12:21:31.707Z,29.90
2017-09-07T12:23:59.630Z,29.90
2017-09-07T12:26:25.844Z,30.60
2017-09-07T12:28:51.999Z,31.00
2017-09-07T12:31:18.162Z,30.50
2017-09-07T12:33:44.308Z,31.00
2017-09-07T12:36:10.523Z,31.10
2017-09-07T12:38:36.706Z,30.30
2017-09-07T12:41:02.896Z,30.30
2017-09-07T12:43:29.021Z,29.70
2017-09-07T12:45:55.178Z,29.80
2017-09-07T12:48:21.483Z,29.70
2017-09-07T12:50:47.891Z,30.30
2017-09-07T12:53:14.039Z,30.00
2017-09-07T12:55:40.194Z,30.00
2017-09-07T12:58:06.330Z,30.90
2017-09-07T13:00:32.504Z,31.10
2017-09-07T13:02:58.659Z,31.10
2017-09-07T13:05:24.842Z,31.10
2017-09-07T13:07:50.972Z,31.10
2017-09-07T13:10:17.163Z,31.10
2017-09-07T13:12:43.310Z,31.10
2017-09-07T13:15:10.768Z,31.10
2017-09-07T13:17:40.653Z,31.00
2017-09-07T13:20:06.810Z,31.10
2017-09-07T13:22:32.969Z,31.10
2017-09-07T13:24:59.100Z,30.30
2017-09-07T13:27:25.242Z,32.10
2017-09-07T13:29:51.372Z,31.40
2017-09-07T13:32:17.519Z,31.40
2017-09-07T13:34:47.620Z,31.00
2017-09-07T13:37:13.828Z,31.40
2017-09-07T13:39:39.974Z,30.60
2017-09-07T13:42:06.130Z,31.00
2017-09-07T13:44:32.280Z,30.70
2017-09-07T13:46:58.439Z,31.20
2017-09-07T13:49:24.591Z,30.80
2017-09-07T13:51:50.754Z,29.90
2017-09-07T13:54:16.892Z,29.60
2017-09-07T13:56:43.055Z,30.20
2017-09-07T13:59:09.222Z,30.50
2017-09-07T14:01:35.395Z,30.10
2017-09-07T14:04:01.547Z,29.80
2017-09-07T14:06:27.702Z,29.70
2017-09-07T14:08:55.577Z,30.00
2017-09-07T14:11:21.742Z,29.90
2017-09-07T14:13:49.797Z,29.70
2017-09-07T14:16:17.008Z,30.10
2017-09-07T14:18:43.172Z,29.80
2017-09-07T14:21:09.444Z,28.70
2017-09-07T14:23:35.650Z,28.30
2017-09-07T14:26:01.819Z,28.10
2017-09-07T14:28:27.978Z,27.80
2017-09-07T14:30:54.156Z,28.00
2017-09-07T14:33:20.370Z,28.00
2017-09-07T14:35:46.579Z,27.90
2017-09-07T14:38:12.743Z,28.00
2017-09-07T14:40:38.894Z,28.00
2017-09-07T14:43:05.074Z,28.20
2017-09-07T14:45:31.256Z,28.70
2017-09-07T14:47:57.402Z,28.60
2017-09-07T14:50:23.550Z,28.60
2017-09-07T14:52:49.686Z,29.00
2017-09-07T14:55:15.878Z,28.20
2017-09-07T14:57:42.855Z,28.50
2017-09-07T15:00:09.020Z,28.50
2017-09-07T15:02:35.152Z,28.20
2017-09-07T15:05:01.327Z,28.80
2017-09-07T15:07:27.487Z,28.50
2017-09-07T15:09:53.653Z,28.80
2017-09-07T15:12:19.803Z,28.90
2017-09-07T15:14:45.958Z,29.10
2017-09-07T15:17:14.323Z,29.00
2017-09-07T15:19:40.482Z,29.20
2017-09-07T15:22:06.609Z,29.60
2017-09-07T15:24:32.787Z,29.80
2017-09-07T15:26:58.942Z,30.30
2017-09-07T15:29:25.087Z,30.40
2017-09-07T15:31:51.223Z,30.20
2017-09-07T15:34:17.408Z,30.00
2017-09-07T15:36:43.557Z,29.50
2017-09-07T15:39:09.743Z,28.70
2017-09-07T15:41:35.882Z,29.00
2017-09-07T15:44:02.038Z,28.80
2017-09-07T15:46:28.219Z,29.00
2017-09-07T15:48:54.378Z,29.30
2017-09-07T15:51:20.546Z,28.90
2017-09-07T15:53:46.681Z,29.20
2017-09-07T15:56:12.835Z,29.60
2017-09-07T15:58:39.025Z,29.70
2017-09-07T16:01:05.203Z,28.90
2017-09-07T16:03:31.345Z,28.60
2017-09-07T16:05:57.533Z,29.00
2017-09-07T16:08:23.664Z,29.40
2017-09-07T16:10:49.798Z,29.30
2017-09-07T16:13:15.930Z,29.30
2017-09-07T16:15:42.112Z,29.40
2017-09-07T16:18:09.322Z,29.80
2017-09-07T16:20:35.470Z,30.00
2017-09-07T16:23:01.603Z,30.80
2017-09-07T16:25:27.764Z,30.90
2017-09-07T16:27:53.887Z,30.90
2017-09-07T16:30:20.050Z,30.80
2017-09-07T16:32:46.179Z,30.80
2017-09-07T16:35:12.322Z,31.10
2017-09-07T16:37:38.470Z,31.40
2017-09-07T16:40:04.631Z,31.70
2017-09-07T16:42:30.838Z,32.00
2017-09-07T16:44:56.995Z,32.70
2017-09-07T16:47:23.194Z,31.80
2017-09-07T16:49:51.328Z,32.10
2017-09-07T16:52:17.658Z,31.80
2017-09-07T16:54:44.227Z,32.70
2017-09-07T16:57:10.636Z,31.90
2017-09-07T16:59:36.843Z,31.80
2017-09-07T17:02:02.992Z,31.10
2017-09-07T17:04:32.580Z,31.00
2017-09-07T17:07:01.692Z,31.20
2017-09-07T17:09:27.896Z,31.60
2017-09-07T17:11:54.051Z,31.80
2017-09-07T17:14:20.194Z,31.80
2017-09-07T17:16:49.659Z,31.60
2017-09-07T17:19:17.914Z,32.00
2017-09-07T17:21:46.138Z,32.00
2017-09-07T17:24:12.275Z,32.10
2017-09-07T17:27:29.595Z,32.10
2017-09-07T17:29:56.548Z,32.60
2017-09-07T17:32:22.709Z,32.60
2017-09-07T17:34:48.855Z,32.70
2017-09-07T17:37:15.770Z,33.10
2017-09-07T17:39:44.262Z,33.10
2017-09-07T17:42:10.541Z,33.20
2017-09-07T17:44:36.686Z,33.20
2017-09-07T17:47:02.814Z,34.00
2017-09-07T17:49:28.970Z,33.70
2017-09-07T17:51:55.123Z,33.80
2017-09-07T17:54:21.316Z,33.70
2017-09-07T17:56:48.199Z,34.10
2017-09-07T17:59:14.369Z,34.80
2017-09-07T18:01:40.524Z,34.20
2017-09-07T18:04:06.701Z,34.30
2017-09-07T18:06:32.859Z,34.30
2017-09-07T18:08:59.002Z,34.70
2017-09-07T18:11:25.883Z,34.50
2017-09-07T18:13:52.063Z,34.50
2017-09-07T18:16:18.982Z,34.80
2017-09-07T18:18:45.867Z,34.70
2017-09-07T18:21:12.035Z,34.70
2017-09-07T18:23:38.182Z,34.80
2017-09-07T18:26:04.324Z,35.10
2017-09-07T18:28:30.524Z,35.00
2017-09-07T18:30:56.662Z,35.20
2017-09-07T18:33:23.559Z,35.40
2017-09-07T18:35:49.729Z,35.30
2017-09-07T18:38:15.874Z,35.50
2017-09-07T18:40:42.069Z,35.50
2017-09-07T18:43:32.898Z,35.50
2017-09-07T18:45:59.022Z,35.70
2017-09-07T18:48:26.238Z,35.90
2017-09-07T18:50:52.399Z,36.00
2017-09-07T18:53:18.628Z,36.20
2017-09-07T18:55:44.772Z,36.40
2017-09-07T18:58:10.935Z,36.60
2017-09-07T19:00:37.079Z,36.80
2017-09-07T19:03:03.444Z,36.90
2017-09-07T19:05:30.339Z,37.10
2017-09-07T19:07:56.478Z,37.10
2017-09-07T19:10:22.644Z,37.10
2017-09-07T19:12:48.795Z,37.30
2017-09-07T19:15:15.032Z,38.20
2017-09-07T19:17:41.191Z,37.90
2017-09-07T19:20:07.378Z,37.70
2017-09-07T19:22:33.519Z,37.60
2017-09-07T19:24:59.666Z,37.50
2017-09-07T19:27:25.807Z,37.50
2017-09-07T19:29:54.359Z,38.40
2017-09-07T19:32:20.595Z,37.90
2017-09-07T19:34:58.596Z,38.00
2017-09-07T19:37:24.778Z,38.00
2017-09-07T19:39:52.778Z,40.00
2017-09-07T19:42:18.989Z,40.00
2017-09-07T19:44:45.134Z,39.90
2017-09-07T19:47:12.087Z,39.40
2017-09-07T19:49:38.951Z,39.50
2017-09-07T19:52:05.107Z,39.50
2017-09-07T19:54:31.983Z,38.90
2017-09-07T19:56:58.139Z,38.50
2017-09-07T19:59:24.274Z,38.70
2017-09-07T20:01:50.434Z,38.70
2017-09-07T20:04:16.586Z,38.90
2017-09-07T20:06:43.520Z,39.20
2017-09-07T20:09:09.715Z,39.10
2017-09-07T20:11:35.856Z,39.20
2017-09-07T20:14:04.008Z,39.40
2017-09-07T20:16:30.882Z,39.50
2017-09-07T20:18:57.007Z,39.40
2017-09-07T20:21:23.190Z,39.80
2017-09-07T20:23:49.357Z,39.80
2017-09-07T20:26:15.510Z,39.80
2017-09-07T20:28:41.653Z,39.80
2017-09-07T20:31:07.774Z,39.80
2017-09-07T20:33:33.923Z,39.80
2017-09-07T20:36:00.528Z,39.80
2017-09-07T20:38:26.675Z,39.80
2017-09-07T20:40:52.799Z,39.80
2017-09-07T20:43:18.948Z,40.10
2017-09-07T20:45:45.082Z,40.20
2017-09-07T20:48:11.979Z,40.50
2017-09-07T20:50:38.097Z,40.50
2017-09-07T20:53:04.259Z,40.70
2017-09-07T20:55:30.634Z,41.30
2017-09-07T20:57:56.907Z,41.70
2017-09-07T21:00:23.366Z,41.60
2017-09-07T21:02:49.503Z,41.00
2017-09-07T21:05:16.430Z,41.00
2017-09-07T21:07:43.435Z,41.10
2017-09-07T21:10:09.573Z,41.10
2017-09-07T21:12:36.467Z,41.00
2017-09-07T21:15:02.627Z,41.00
2017-09-07T21:17:28.762Z,41.20
2017-09-07T21:19:54.907Z,41.20
2017-09-07T21:22:21.070Z,41.10
2017-09-07T21:24:47.220Z,41.20
2017-09-07T21:27:13.360Z,41.40
2017-09-07T21:29:40.254Z,41.50
2017-09-07T21:32:06.398Z,41.50
2017-09-07T21:34:32.588Z,41.50
2017-09-07T21:36:58.727Z,41.70
2017-09-07T21:39:25.659Z,41.70
2017-09-07T21:41:52.550Z,41.80
2017-09-07T21:44:18.686Z,41.80
2017-09-07T21:46:44.852Z,41.50
2017-09-07T21:49:11.018Z,41.70
2017-09-07T21:51:37.931Z,41.70
2017-09-07T21:54:04.083Z,41.70
2017-09-07T21:56:30.239Z,41.80
2017-09-07T21:58:56.390Z,41.80
2017-09-07T22:01:22.526Z,41.80
2017-09-07T22:03:48.706Z,42.20
2017-09-07T22:06:15.816Z,42.20
2017-09-07T22:08:41.946Z,42.10
2017-09-07T22:11:08.106Z,41.90
2017-09-07T22:13:34.276Z,42.10
2017-09-07T22:16:00.414Z,42.00
2017-09-07T22:18:26.531Z,42.10
2017-09-07T22:20:52.682Z,42.00
2017-09-07T22:23:18.806Z,42.30
2017-09-07T22:25:44.954Z,42.00
2017-09-07T22:28:11.233Z,42.10
2017-09-07T22:30:37.374Z,42.20
2017-09-07T22:33:03.495Z,42.30
2017-09-07T22:35:29.646Z,42.50
2017-09-07T22:37:55.803Z,42.60
2017-09-07T22:40:22.687Z,42.40
2017-09-07T22:42:48.822Z,42.40
2017-09-07T22:45:14.972Z,42.50
2017-09-07T22:47:41.141Z,42.70
2017-09-07T22:50:07.299Z,42.50
2017-09-07T22:52:33.455Z,42.50
2017-09-07T22:54:59.610Z,42.50
2017-09-07T22:57:26.468Z,42.70
2017-09-07T22:59:52.610Z,42.70
2017-09-07T23:02:18.746Z,42.60
2017-09-07T23:04:45.631Z,42.80
2017-09-07T23:07:11.810Z,42.80
2017-09-07T23:09:37.943Z,42.80
2017-09-07T23:12:04.108Z,42.80
2017-09-07T23:14:30.258Z,42.90
2017-09-07T23:16:56.416Z,42.90
2017-09-07T23:19:22.547Z,43.00
2017-09-07T23:21:48.717Z,43.00
2017-09-07T23:24:14.859Z,43.10
2017-09-07T23:26:41.031Z,42.90
2017-09-07T23:29:07.162Z,42.90
2017-09-07T23:31:33.341Z,43.10
2017-09-07T23:33:59.470Z,43.20
2017-09-07T23:36:25.650Z,43.30
2017-09-07T23:38:52.547Z,43.20
2017-09-07T23:41:18.702Z,43.10
2017-09-07T23:43:44.832Z,43.10
2017-09-07T23:46:10.990Z,43.30
2017-09-07T23:48:37.892Z,43.20
2017-09-07T23:51:04.022Z,43.20
2017-09-07T23:53:30.162Z,43.40
2017-09-07T23:55:56.291Z,43.40
2017-09-07T23:58:22.459Z,43.40
